createdAt,value
2024-04-01T00:00:38.143Z,8.56
2024-04-01T00:01:38.191Z,8.58
2024-04-01T00:02:38.121Z,8.60
2024-04-01T00:03:38.189Z,8.61
2024-04-01T00:04:38.129Z,8.61
2024-04-01T00:05:38.146Z,8.63
2024-04-01T00:06:38.098Z,8.61
2024-04-01T00:07:38.126Z,8.55
2024-04-01T00:08:38.142Z,8.55
2024-04-01T00:09:38.170Z,8.52
2024-04-01T00:10:38.078Z,8.51
2024-04-01T00:11:38.878Z,8.48
2024-04-01T00:12:38.092Z,8.45
2024-04-01T00:13:38.033Z,8.45
2024-04-01T00:14:38.024Z,8.44
2024-04-01T00:15:38.029Z,8.44
2024-04-01T00:16:38.069Z,8.42
2024-04-01T00:17:38.337Z,8.38
2024-04-01T00:18:38.000Z,8.36
2024-04-01T00:19:37.941Z,8.36
2024-04-01T00:20:37.946Z,8.33
2024-04-01T00:21:37.982Z,8.30
2024-04-01T00:22:37.974Z,8.27
2024-04-01T00:23:37.925Z,8.23
2024-04-01T00:24:37.960Z,8.16
2024-04-01T00:25:37.914Z,8.15
2024-04-01T00:26:37.879Z,8.15
2024-04-01T00:27:37.872Z,8.15
2024-04-01T00:28:37.876Z,8.15
2024-04-01T00:29:37.838Z,8.13
2024-04-01T00:30:37.828Z,8.10
2024-04-01T00:31:37.876Z,8.09
2024-04-01T00:32:37.837Z,8.06
2024-04-01T00:33:37.808Z,8.06
2024-04-01T00:34:37.769Z,8.06
2024-04-01T00:35:37.953Z,8.10
2024-04-01T00:36:37.806Z,8.10
2024-04-01T00:38:57.377Z,8.12
2024-04-01T00:39:58.331Z,8.09
2024-04-01T00:40:58.349Z,8.06
2024-04-01T00:41:58.314Z,8.05
2024-04-01T00:42:58.366Z,8.01
2024-04-01T00:43:58.345Z,7.98
2024-04-01T00:44:58.286Z,7.97
2024-04-01T00:45:58.298Z,7.95
2024-04-01T00:46:58.268Z,7.95
2024-04-01T00:47:58.306Z,7.94
2024-04-01T00:48:58.254Z,7.95
2024-04-01T00:49:58.243Z,7.95
2024-04-01T00:50:58.229Z,7.94
2024-04-01T00:51:58.219Z,7.97
2024-04-01T00:52:58.466Z,7.97
2024-04-01T00:53:58.229Z,7.98
2024-04-01T00:54:58.194Z,8.00
2024-04-01T00:55:58.184Z,8.00
2024-04-01T00:56:58.177Z,8.00
2024-04-01T00:57:58.158Z,8.00
2024-04-01T00:58:58.164Z,8.00
2024-04-01T00:59:58.140Z,8.03
2024-04-01T01:00:58.116Z,8.01
2024-04-01T01:01:58.131Z,8.06
2024-04-01T01:02:58.108Z,8.06
2024-04-01T01:03:58.102Z,8.05
2024-04-01T01:04:58.104Z,8.05
2024-04-01T01:05:58.091Z,8.05
2024-04-01T01:07:00.217Z,8.05
2024-04-01T01:07:58.042Z,8.05
2024-04-01T01:08:58.077Z,8.03
2024-04-01T01:09:58.091Z,8.05
2024-04-01T01:10:58.048Z,8.01
2024-04-01T01:11:58.010Z,7.98
2024-04-01T01:12:58.028Z,7.95
2024-04-01T01:13:58.023Z,7.93
2024-04-01T01:14:58.009Z,7.91
2024-04-01T01:15:57.983Z,7.94
2024-04-01T01:16:57.946Z,7.97
2024-04-01T01:17:57.950Z,7.98
2024-04-01T01:18:57.961Z,8.00
2024-04-01T01:19:57.955Z,8.01
2024-04-01T01:20:57.904Z,8.03
2024-04-01T01:21:58.009Z,8.06
2024-04-01T01:22:57.900Z,8.08
2024-04-01T01:23:57.894Z,8.10
2024-04-01T01:24:57.920Z,8.10
2024-04-01T01:25:57.976Z,8.12
2024-04-01T01:26:57.854Z,8.15
2024-04-01T01:27:57.888Z,8.15
2024-04-01T01:29:00.430Z,8.15
2024-04-01T01:29:57.897Z,8.15
2024-04-01T01:30:57.875Z,8.12
2024-04-01T01:31:57.871Z,8.12
2024-04-01T01:32:57.859Z,8.09
2024-04-01T01:33:57.942Z,8.06
2024-04-01T01:34:57.773Z,8.03
2024-04-01T01:35:57.842Z,8.05
2024-04-01T01:36:57.864Z,8.06
2024-04-01T01:37:57.918Z,8.06
2024-04-01T01:38:57.788Z,8.06
2024-04-01T01:39:57.730Z,8.08
2024-04-01T01:40:57.726Z,8.09
2024-04-01T01:41:57.740Z,8.10
2024-04-01T01:42:57.701Z,8.15
2024-04-01T01:43:59.703Z,8.13
2024-04-01T01:44:57.691Z,8.13
2024-04-01T01:45:57.688Z,8.16
2024-04-01T01:46:57.695Z,8.16
2024-04-01T01:47:57.673Z,8.18
2024-04-01T01:48:57.644Z,8.16
2024-04-01T01:49:57.620Z,8.15
2024-04-01T01:50:57.686Z,8.15
2024-04-01T01:51:57.638Z,8.16
2024-04-01T01:52:57.611Z,8.15
2024-04-01T01:53:57.586Z,8.16
2024-04-01T01:54:57.627Z,8.19
2024-04-01T01:55:57.610Z,8.18
2024-04-01T01:56:57.562Z,8.20
2024-04-01T01:57:57.601Z,8.18
2024-04-01T01:58:57.572Z,8.16
2024-04-01T01:59:57.547Z,8.18
2024-04-01T02:00:57.499Z,8.18
2024-04-01T02:01:57.513Z,8.18
2024-04-01T02:02:57.514Z,8.19
2024-04-01T02:03:57.504Z,8.20
2024-04-01T02:04:57.495Z,8.23
2024-04-01T02:05:57.443Z,8.23
2024-04-01T02:06:57.466Z,8.28
2024-04-01T02:07:57.455Z,8.30
2024-04-01T02:08:57.441Z,8.28
2024-04-01T02:09:57.456Z,8.28
2024-04-01T02:10:57.413Z,8.28
2024-04-01T02:11:57.404Z,8.30
2024-04-01T02:12:57.381Z,8.28
2024-04-01T02:13:57.389Z,8.31
2024-04-01T02:14:57.394Z,8.30
2024-04-01T02:15:57.351Z,8.30
2024-04-01T02:16:57.368Z,8.30
2024-04-01T02:17:57.370Z,8.31
2024-04-01T02:18:57.390Z,8.34
2024-04-01T02:19:57.317Z,8.36
2024-04-01T02:20:57.294Z,8.36
2024-04-01T02:21:57.352Z,8.37
2024-04-01T02:22:57.321Z,8.41
2024-04-01T02:23:57.266Z,8.44
2024-04-01T02:24:57.283Z,8.44
2024-04-01T02:25:57.262Z,8.45
2024-04-01T02:26:57.282Z,8.44
2024-04-01T02:27:57.230Z,8.46
2024-04-01T02:28:57.256Z,8.46
2024-04-01T02:29:57.233Z,8.49
2024-04-01T02:30:57.206Z,8.49
2024-04-01T02:31:57.236Z,8.49
2024-04-01T02:32:57.210Z,8.48
2024-04-01T02:33:57.187Z,8.46
2024-04-01T02:34:57.173Z,8.46
2024-04-01T02:35:57.179Z,8.45
2024-04-01T02:36:57.169Z,8.46
2024-04-01T02:37:57.150Z,8.45
2024-04-01T02:38:57.124Z,8.46
2024-04-01T02:39:57.209Z,8.46
2024-04-01T02:40:57.127Z,8.46
2024-04-01T02:41:57.087Z,8.44
2024-04-01T02:42:57.105Z,8.44
2024-04-01T02:43:57.076Z,8.42
2024-04-01T02:44:57.064Z,8.44
2024-04-01T02:45:57.085Z,8.45
2024-04-01T02:46:57.036Z,8.44
2024-04-01T02:47:57.062Z,8.44
2024-04-01T02:48:57.028Z,8.45
2024-04-01T02:49:57.018Z,8.44
2024-04-01T02:50:57.024Z,8.44
2024-04-01T02:51:57.007Z,8.42
2024-04-01T02:52:56.998Z,8.42
2024-04-01T02:53:57.019Z,8.41
2024-04-01T02:54:56.989Z,8.38
2024-04-01T02:55:56.959Z,8.42
2024-04-01T02:56:56.953Z,8.44
2024-04-01T02:57:56.942Z,8.44
2024-04-01T02:58:56.921Z,8.45
2024-04-01T02:59:56.909Z,8.44
2024-04-01T03:00:56.897Z,8.45
2024-04-01T03:01:56.888Z,8.42
2024-04-01T03:02:56.885Z,8.45
2024-04-01T03:03:56.857Z,8.45
2024-04-01T03:04:56.868Z,8.45
2024-04-01T03:05:56.836Z,8.44
2024-04-01T03:06:56.878Z,8.42
2024-04-01T03:07:56.852Z,8.44
2024-04-01T03:08:56.834Z,8.42
2024-04-01T03:09:56.801Z,8.42
2024-04-01T03:10:56.825Z,8.41
2024-04-01T03:11:56.790Z,8.42
2024-04-01T03:12:56.804Z,8.42
2024-04-01T03:13:56.769Z,8.46
2024-04-01T03:14:56.768Z,8.45
2024-04-01T03:15:56.766Z,8.48
2024-04-01T03:16:56.740Z,8.49
2024-04-01T03:17:57.287Z,8.51
2024-04-01T03:18:56.701Z,8.52
2024-04-01T03:19:56.715Z,8.53
2024-04-01T03:20:56.710Z,8.53
2024-04-01T03:21:56.658Z,8.55
2024-04-01T03:22:56.694Z,8.55
2024-04-01T03:23:56.764Z,8.53
2024-04-01T03:24:56.658Z,8.53
2024-04-01T03:25:56.635Z,8.53
2024-04-01T03:26:56.647Z,8.53
2024-04-01T03:27:56.619Z,8.52
2024-04-01T03:28:56.601Z,8.49
2024-04-01T03:29:56.606Z,8.52
2024-04-01T03:30:56.582Z,8.51
2024-04-01T03:31:56.635Z,8.51
2024-04-01T03:32:56.565Z,8.52
2024-04-01T03:33:56.553Z,8.52
2024-04-01T03:34:56.574Z,8.55
2024-04-01T03:35:56.561Z,8.53
2024-04-01T03:36:56.533Z,8.52
2024-04-01T03:37:56.512Z,8.52
2024-04-01T03:38:56.531Z,8.53
2024-04-01T03:39:56.546Z,8.55
2024-04-01T03:40:56.533Z,8.55
2024-04-01T03:41:56.478Z,8.53
2024-04-01T03:42:56.493Z,8.56
2024-04-01T03:43:56.481Z,8.58
2024-04-01T03:44:56.485Z,8.56
2024-04-01T03:45:56.425Z,8.58
2024-04-01T03:46:56.431Z,8.53
2024-04-01T03:47:56.410Z,8.52
2024-04-01T03:48:56.444Z,8.49
2024-04-01T03:49:56.420Z,8.46
2024-04-01T03:50:56.385Z,8.45
2024-04-01T03:51:56.407Z,8.46
2024-04-01T03:52:56.399Z,8.45
2024-04-01T03:53:56.397Z,8.46
2024-04-01T03:54:56.363Z,8.46
2024-04-01T03:55:56.336Z,8.46
2024-04-01T03:56:56.347Z,8.46
2024-04-01T03:57:56.332Z,8.45
2024-04-01T03:58:56.307Z,8.45
2024-04-01T03:59:56.302Z,8.44
2024-04-01T04:00:56.295Z,8.45
2024-04-01T04:01:56.275Z,8.48
2024-04-01T04:02:56.319Z,8.53
2024-04-01T04:03:56.322Z,8.56
2024-04-01T04:04:57.920Z,8.58
2024-04-01T04:05:56.245Z,8.60
2024-04-01T04:06:56.239Z,8.66
2024-04-01T04:07:56.242Z,8.70
2024-04-01T04:08:56.209Z,8.73
2024-04-01T04:09:56.204Z,8.73
2024-04-01T04:10:56.171Z,8.73
2024-04-01T04:11:56.180Z,8.71
2024-04-01T04:12:56.182Z,8.74
2024-04-01T04:13:56.206Z,8.78
2024-04-01T04:14:56.172Z,8.76
2024-04-01T04:15:56.138Z,8.78
2024-04-01T04:16:56.130Z,8.76
2024-04-01T04:17:56.121Z,8.76
2024-04-01T04:18:56.109Z,8.76
2024-04-01T04:19:56.106Z,8.74
2024-04-01T04:20:56.072Z,8.71
2024-04-01T04:21:56.064Z,8.70
2024-04-01T04:22:56.067Z,8.71
2024-04-01T04:23:56.057Z,8.76
2024-04-01T04:24:56.117Z,8.76
2024-04-01T04:25:56.064Z,8.73
2024-04-01T04:26:56.066Z,8.70
2024-04-01T04:27:56.002Z,8.71
2024-04-01T04:28:56.002Z,8.76
2024-04-01T04:29:55.999Z,8.79
2024-04-01T04:30:56.003Z,8.79
2024-04-01T04:31:55.974Z,8.79
2024-04-01T04:32:56.036Z,8.78
2024-04-01T04:33:56.080Z,8.76
2024-04-01T04:34:55.931Z,8.76
2024-04-01T04:35:55.940Z,8.76
2024-04-01T04:36:55.956Z,8.71
2024-04-01T04:37:55.936Z,8.73
2024-04-01T04:38:55.906Z,8.73
2024-04-01T04:39:55.909Z,8.71
2024-04-01T04:40:55.882Z,8.70
2024-04-01T04:41:55.856Z,8.70
2024-04-01T04:42:55.867Z,8.71
2024-04-01T04:43:55.789Z,8.71
2024-04-01T04:44:55.874Z,8.70
2024-04-01T04:45:55.773Z,8.70
2024-04-01T04:46:55.780Z,8.70
2024-04-01T04:47:55.776Z,8.71
2024-04-01T04:48:55.727Z,8.71
2024-04-01T04:49:55.726Z,8.71
2024-04-01T04:50:55.746Z,8.71
2024-04-01T04:51:55.816Z,8.70
2024-04-01T04:52:55.690Z,8.71
2024-04-01T04:53:55.700Z,8.71
2024-04-01T04:54:55.762Z,8.71
2024-04-01T04:55:55.644Z,8.71
2024-04-01T04:56:55.740Z,8.71
2024-04-01T04:57:55.638Z,8.73
2024-04-01T04:58:55.669Z,8.71
2024-04-01T04:59:55.631Z,8.74
2024-04-01T05:00:55.640Z,8.73
2024-04-01T05:01:55.588Z,8.73
2024-04-01T05:02:55.599Z,8.73
2024-04-01T05:03:55.625Z,8.76
2024-04-01T05:04:55.594Z,8.73
2024-04-01T05:05:55.593Z,8.74
2024-04-01T05:06:55.623Z,8.74
2024-04-01T05:07:55.550Z,8.74
2024-04-01T05:08:55.551Z,8.73
2024-04-01T05:09:55.527Z,8.76
2024-04-01T05:10:55.636Z,8.76
2024-04-01T05:11:55.505Z,8.78
2024-04-01T05:12:55.522Z,8.78
2024-04-01T05:13:55.965Z,8.79
2024-04-01T05:14:55.520Z,8.81
2024-04-01T05:15:55.474Z,8.81
2024-04-01T05:16:55.465Z,8.82
2024-04-01T05:17:55.473Z,8.84
2024-04-01T05:18:55.421Z,8.85
2024-04-01T05:19:55.422Z,8.84
2024-04-01T05:20:55.418Z,8.87
2024-04-01T05:21:55.469Z,8.88
2024-04-01T05:22:55.405Z,8.89
2024-04-01T05:23:55.400Z,8.89
2024-04-01T05:24:55.370Z,8.92
2024-04-01T05:25:55.360Z,8.91
2024-04-01T05:26:55.394Z,8.94
2024-04-01T05:27:55.376Z,8.92
2024-04-01T05:28:55.342Z,8.91
2024-04-01T05:29:55.344Z,8.94
2024-04-01T05:30:55.454Z,8.95
2024-04-01T05:31:55.306Z,8.95
2024-04-01T05:32:55.343Z,8.94
2024-04-01T05:33:55.469Z,8.95
2024-04-01T05:34:55.280Z,8.97
2024-04-01T05:35:55.297Z,8.99
2024-04-01T05:36:55.262Z,9.02
2024-04-01T05:37:55.273Z,9.03
2024-04-01T05:38:55.235Z,9.08
2024-04-01T05:39:55.217Z,9.11
2024-04-01T05:40:55.280Z,9.11
2024-04-01T05:41:55.215Z,9.13
2024-04-01T05:42:55.194Z,9.14
2024-04-01T05:43:55.208Z,9.14
2024-04-01T05:44:55.167Z,9.19
2024-04-01T05:45:55.273Z,9.21
2024-04-01T05:46:55.147Z,9.22
2024-04-01T05:47:55.133Z,9.23
2024-04-01T05:48:55.132Z,9.23
2024-04-01T05:49:55.159Z,9.26
2024-04-01T05:50:55.156Z,9.25
2024-04-01T05:51:55.895Z,9.26
2024-04-01T05:52:55.105Z,9.26
2024-04-01T05:53:55.124Z,9.25
2024-04-01T05:54:55.099Z,9.26
2024-04-01T05:55:55.074Z,9.28
2024-04-01T05:58:14.183Z,9.26
2024-04-01T05:59:14.149Z,9.26
2024-04-01T06:00:14.173Z,9.26
2024-04-01T06:01:14.121Z,9.28
2024-04-01T06:02:14.124Z,9.26
2024-04-01T06:03:14.141Z,9.28
2024-04-01T06:04:14.099Z,9.29
2024-04-01T06:05:14.114Z,9.29
2024-04-01T06:06:14.120Z,9.29
2024-04-01T06:07:14.103Z,9.29
2024-04-01T06:08:14.055Z,9.29
2024-04-01T06:09:14.044Z,9.28
2024-04-01T06:10:14.047Z,9.31
2024-04-01T06:11:14.055Z,9.29
2024-04-01T06:12:14.701Z,9.29
2024-04-01T06:13:14.059Z,9.29
2024-04-01T06:14:14.010Z,9.31
2024-04-01T06:15:14.035Z,9.29
2024-04-01T06:16:13.998Z,9.29
2024-04-01T06:17:13.954Z,9.29
2024-04-01T06:18:13.975Z,9.29
2024-04-01T06:19:13.928Z,9.29
2024-04-01T06:20:13.963Z,9.31
2024-04-01T06:21:13.931Z,9.31
2024-04-01T06:22:13.927Z,9.29
2024-04-01T06:23:13.922Z,9.31
2024-04-01T06:24:13.933Z,9.31
2024-04-01T06:25:13.903Z,9.31
2024-04-01T06:26:13.872Z,9.31
2024-04-01T06:27:13.899Z,9.32
2024-04-01T06:28:13.897Z,9.31
2024-04-01T06:29:13.842Z,9.34
2024-04-01T06:30:13.844Z,9.32
2024-04-01T06:31:13.834Z,9.31
2024-04-01T06:32:14.181Z,9.32
2024-04-01T06:33:13.816Z,9.32
2024-04-01T06:34:13.795Z,9.34
2024-04-01T06:35:13.815Z,9.31
2024-04-01T06:36:13.773Z,9.34
2024-04-01T06:37:13.748Z,9.36
2024-04-01T06:38:13.750Z,9.36
2024-04-01T06:39:13.788Z,9.37
2024-04-01T06:40:13.718Z,9.37
2024-04-01T06:41:13.711Z,9.40
2024-04-01T06:42:13.734Z,9.39
2024-04-01T06:43:13.696Z,9.40
2024-04-01T06:44:13.667Z,9.40
2024-04-01T06:45:13.654Z,9.41
2024-04-01T06:46:13.664Z,9.41
2024-04-01T06:47:13.636Z,9.46
2024-04-01T06:48:13.662Z,9.46
2024-04-01T06:49:13.639Z,9.44
2024-04-01T06:50:13.668Z,9.47
2024-04-01T06:51:13.630Z,9.46
2024-04-01T06:52:13.606Z,9.47
2024-04-01T06:53:15.976Z,9.48
2024-04-01T06:54:13.602Z,9.50
2024-04-01T06:55:13.634Z,9.51
2024-04-01T06:56:13.602Z,9.54
2024-04-01T06:57:13.577Z,9.55
2024-04-01T06:58:13.550Z,9.54
2024-04-01T06:59:13.555Z,9.54
2024-04-01T07:00:13.522Z,9.55
2024-04-01T07:01:13.512Z,9.55
2024-04-01T07:02:13.531Z,9.56
2024-04-01T07:03:13.524Z,9.58
2024-04-01T07:04:13.478Z,9.61
2024-04-01T07:05:13.478Z,9.61
2024-04-01T07:06:13.495Z,9.62
2024-04-01T07:07:13.526Z,9.65
2024-04-01T07:08:13.451Z,9.66
2024-04-01T07:09:13.464Z,9.68
2024-04-01T07:10:13.471Z,9.68
2024-04-01T07:11:13.425Z,9.69
2024-04-01T07:12:13.392Z,9.72
2024-04-01T07:13:13.398Z,9.73
2024-04-01T07:14:13.425Z,9.74
2024-04-01T07:15:13.410Z,9.77
2024-04-01T07:16:13.383Z,9.77
2024-04-01T07:17:13.409Z,9.79
2024-04-01T07:18:13.347Z,9.79
2024-04-01T07:19:13.353Z,9.80
2024-04-01T07:20:13.367Z,9.82
2024-04-01T07:21:13.301Z,9.83
2024-04-01T07:22:13.296Z,9.86
2024-04-01T07:23:13.308Z,9.86
2024-04-01T07:24:13.396Z,9.86
2024-04-01T07:25:13.274Z,9.86
2024-04-01T07:26:13.340Z,9.87
2024-04-01T07:27:13.240Z,9.87
2024-04-01T07:28:13.244Z,9.87
2024-04-01T07:29:13.221Z,9.91
2024-04-01T07:30:13.250Z,9.91
2024-04-01T07:31:13.210Z,9.91
2024-04-01T07:32:13.187Z,9.92
2024-04-01T07:33:13.208Z,9.94
2024-04-01T07:34:13.174Z,9.95
2024-04-01T07:35:13.319Z,9.97
2024-04-01T07:36:13.168Z,9.97
2024-04-01T07:37:13.177Z,9.98
2024-04-01T07:38:13.130Z,9.99
2024-04-01T07:39:13.133Z,10.01
2024-04-01T07:40:13.098Z,10.04
2024-04-01T07:41:13.107Z,10.02
2024-04-01T07:42:13.103Z,10.05
2024-04-01T07:43:13.181Z,10.07
2024-04-01T07:44:13.101Z,10.10
2024-04-01T07:45:13.097Z,10.10
2024-04-01T07:46:13.117Z,10.13
2024-04-01T07:47:13.112Z,10.15
2024-04-01T07:48:13.018Z,10.17
2024-04-01T07:49:13.041Z,10.20
2024-04-01T07:50:13.007Z,10.22
2024-04-01T07:51:13.052Z,10.22
2024-04-01T07:52:12.975Z,10.25
2024-04-01T07:53:12.958Z,10.25
2024-04-01T07:54:13.040Z,10.25
2024-04-01T07:55:13.002Z,10.26
2024-04-01T07:56:13.003Z,10.26
2024-04-01T07:57:12.943Z,10.28
2024-04-01T07:58:12.952Z,10.30
2024-04-01T07:59:12.903Z,10.31
2024-04-01T08:00:12.944Z,10.34
2024-04-01T08:01:12.906Z,10.37
2024-04-01T08:02:12.914Z,10.37
2024-04-01T08:03:12.977Z,10.37
2024-04-01T08:04:12.897Z,10.38
2024-04-01T08:05:12.841Z,10.40
2024-04-01T08:06:12.893Z,10.40
2024-04-01T08:07:12.855Z,10.41
2024-04-01T08:08:12.823Z,10.46
2024-04-01T08:09:12.818Z,10.46
2024-04-01T08:10:12.856Z,10.53
2024-04-01T08:11:31.742Z,10.54
2024-04-01T08:12:12.823Z,10.57
2024-04-01T08:13:12.793Z,10.60
2024-04-01T08:14:15.612Z,10.64
2024-04-01T08:15:12.820Z,10.64
2024-04-01T08:16:12.721Z,10.64
2024-04-01T08:17:12.835Z,10.67
2024-04-01T08:18:12.724Z,10.67
2024-04-01T08:19:12.726Z,10.67
2024-04-01T08:20:12.744Z,10.67
2024-04-01T08:21:12.688Z,10.69
2024-04-01T08:22:12.695Z,10.71
2024-04-01T08:23:12.703Z,10.74
2024-04-01T08:24:12.662Z,10.78
2024-04-01T08:25:12.662Z,10.79
2024-04-01T08:26:12.654Z,10.84
2024-04-01T08:27:12.637Z,10.87
2024-04-01T08:28:12.635Z,10.87
2024-04-01T08:29:12.606Z,10.90
2024-04-01T08:30:12.632Z,10.90
2024-04-01T08:31:12.598Z,10.94
2024-04-01T08:32:12.613Z,10.96
2024-04-01T08:33:12.576Z,11.02
2024-04-01T08:34:12.563Z,11.07
2024-04-01T08:35:12.566Z,11.08
2024-04-01T08:36:13.354Z,11.08
2024-04-01T08:37:12.592Z,11.11
2024-04-01T08:38:12.568Z,11.11
2024-04-01T08:39:12.553Z,11.14
2024-04-01T08:40:12.513Z,11.14
2024-04-01T08:41:12.501Z,11.12
2024-04-01T08:42:12.496Z,11.12
2024-04-01T08:43:12.468Z,11.14
2024-04-01T08:44:12.454Z,11.10
2024-04-01T08:45:12.443Z,11.08
2024-04-01T08:46:12.517Z,11.08
2024-04-01T08:47:12.454Z,11.05
2024-04-01T08:48:12.413Z,11.04
2024-04-01T08:49:12.433Z,11.02
2024-04-01T08:50:12.387Z,10.97
2024-04-01T08:51:12.366Z,10.94
2024-04-01T08:52:12.366Z,10.96
2024-04-01T08:53:12.403Z,10.93
2024-04-01T08:54:12.355Z,10.94
2024-04-01T08:55:12.325Z,10.93
2024-04-01T08:56:12.385Z,10.92
2024-04-01T08:57:12.456Z,10.94
2024-04-01T08:58:12.342Z,10.93
2024-04-01T08:59:12.345Z,10.90
2024-04-01T09:00:12.311Z,10.90
2024-04-01T09:01:12.273Z,10.86
2024-04-01T09:02:12.268Z,10.84
2024-04-01T09:03:12.266Z,10.81
2024-04-01T09:04:12.250Z,10.79
2024-04-01T09:05:12.233Z,10.81
2024-04-01T09:06:12.285Z,10.79
2024-04-01T09:07:12.231Z,10.82
2024-04-01T09:08:12.223Z,10.81
2024-04-01T09:09:12.213Z,10.82
2024-04-01T09:10:12.253Z,10.81
2024-04-01T09:11:12.157Z,10.82
2024-04-01T09:12:12.167Z,10.82
2024-04-01T09:13:12.142Z,10.82
2024-04-01T09:14:14.083Z,10.84
2024-04-01T09:15:12.178Z,10.87
2024-04-01T09:16:12.123Z,10.89
2024-04-01T09:17:12.119Z,10.89
2024-04-01T09:18:12.121Z,10.90
2024-04-01T09:19:12.113Z,10.92
2024-04-01T09:20:12.078Z,10.92
2024-04-01T09:21:12.158Z,10.92
2024-04-01T09:22:12.223Z,10.96
2024-04-01T09:23:12.022Z,10.97
2024-04-01T09:24:12.108Z,11.04
2024-04-01T09:25:12.048Z,11.08
2024-04-01T09:26:12.042Z,11.10
2024-04-01T09:27:12.055Z,11.15
2024-04-01T09:28:12.021Z,11.18
2024-04-01T09:29:11.966Z,11.22
2024-04-01T09:30:11.998Z,11.23
2024-04-01T09:31:11.970Z,11.23
2024-04-01T09:32:11.971Z,11.23
2024-04-01T09:33:11.952Z,11.22
2024-04-01T09:34:11.957Z,11.25
2024-04-01T09:35:12.235Z,11.25
2024-04-01T09:36:11.918Z,11.25
2024-04-01T09:37:11.975Z,11.25
2024-04-01T09:38:11.899Z,11.23
2024-04-01T09:39:11.900Z,11.25
2024-04-01T09:40:11.894Z,11.22
2024-04-01T09:41:11.850Z,11.22
2024-04-01T09:42:11.904Z,11.19
2024-04-01T09:43:11.830Z,11.15
2024-04-01T09:44:11.866Z,11.14
2024-04-01T09:45:11.830Z,11.12
2024-04-01T09:46:11.858Z,11.14
2024-04-01T09:47:11.810Z,11.10
2024-04-01T09:48:11.805Z,11.07
2024-04-01T09:49:11.810Z,11.07
2024-04-01T09:50:11.783Z,11.00
2024-04-01T09:51:11.779Z,10.94
2024-04-01T09:52:11.761Z,10.94
2024-04-01T09:53:11.719Z,10.96
2024-04-01T09:54:11.721Z,10.94
2024-04-01T09:55:11.726Z,10.90
2024-04-01T09:56:11.752Z,10.90
2024-04-01T09:57:19.938Z,10.90
2024-04-01T09:58:11.692Z,10.92
2024-04-01T09:59:11.709Z,10.92
2024-04-01T10:00:11.662Z,10.94
2024-04-01T10:01:11.695Z,10.96
2024-04-01T10:02:11.667Z,10.94
2024-04-01T10:03:11.683Z,10.99
2024-04-01T10:04:11.648Z,11.02
2024-04-01T10:05:11.645Z,11.04
2024-04-01T10:06:11.675Z,11.05
2024-04-01T10:07:11.645Z,11.05
2024-04-01T10:08:11.581Z,11.08
2024-04-01T10:09:11.579Z,11.11
2024-04-01T10:10:11.602Z,11.11
2024-04-01T10:11:11.553Z,11.14
2024-04-01T10:12:11.548Z,11.15
2024-04-01T10:13:11.554Z,11.15
2024-04-01T10:14:11.530Z,11.15
2024-04-01T10:15:11.522Z,11.12
2024-04-01T10:16:11.752Z,11.14
2024-04-01T10:17:11.515Z,11.14
2024-04-01T10:18:11.502Z,11.14
2024-04-01T10:19:11.506Z,11.17
2024-04-01T10:20:11.469Z,11.15
2024-04-01T10:21:11.457Z,11.12
2024-04-01T10:22:11.454Z,11.12
2024-04-01T10:23:11.442Z,11.10
2024-04-01T10:24:11.415Z,11.11
2024-04-01T10:25:11.431Z,11.15
2024-04-01T10:26:11.397Z,11.17
2024-04-01T10:27:11.387Z,11.17
2024-04-01T10:28:11.382Z,11.18
2024-04-01T10:29:11.371Z,11.17
2024-04-01T10:30:11.349Z,11.15
2024-04-01T10:31:11.455Z,11.18
2024-04-01T10:32:11.347Z,11.17
2024-04-01T10:33:11.371Z,11.12
2024-04-01T10:34:11.304Z,11.11
2024-04-01T10:35:11.317Z,11.10
2024-04-01T10:36:23.533Z,11.11
2024-04-01T10:37:11.295Z,11.08
2024-04-01T10:38:11.317Z,11.05
2024-04-01T10:39:11.304Z,10.97
2024-04-01T10:40:11.250Z,10.93
2024-04-01T10:41:11.252Z,10.90
2024-04-01T10:42:11.326Z,10.90
2024-04-01T10:43:11.249Z,10.89
2024-04-01T10:44:11.190Z,10.84
2024-04-01T10:45:11.221Z,10.82
2024-04-01T10:46:11.203Z,10.82
2024-04-01T10:47:11.180Z,10.78
2024-04-01T10:48:11.162Z,10.78
2024-04-01T10:49:11.176Z,10.75
2024-04-01T10:50:11.154Z,10.76
2024-04-01T10:51:11.139Z,10.78
2024-04-01T10:52:11.118Z,10.75
2024-04-01T10:53:11.140Z,10.76
2024-04-01T10:54:11.118Z,10.79
2024-04-01T10:55:11.135Z,10.81
2024-04-01T10:56:11.081Z,10.81
2024-04-01T10:57:11.089Z,10.78
2024-04-01T10:58:11.084Z,10.75
2024-04-01T10:59:11.139Z,10.76
2024-04-01T11:00:11.048Z,10.78
2024-04-01T11:01:11.087Z,10.79
2024-04-01T11:02:11.028Z,10.81
2024-04-01T11:03:11.036Z,10.81
2024-04-01T11:04:11.072Z,10.82
2024-04-01T11:05:10.992Z,10.87
2024-04-01T11:06:11.012Z,10.92
2024-04-01T11:07:10.997Z,10.92
2024-04-01T11:08:10.960Z,10.93
2024-04-01T11:09:10.940Z,10.96
2024-04-01T11:10:10.956Z,10.99
2024-04-01T11:11:13.391Z,11.04
2024-04-01T11:12:11.000Z,11.11
2024-04-01T11:13:10.901Z,11.12
2024-04-01T11:14:10.931Z,11.18
2024-04-01T11:15:10.912Z,11.23
2024-04-01T11:16:10.903Z,11.29
2024-04-01T11:17:10.914Z,11.35
2024-04-01T11:18:10.902Z,11.41
2024-04-01T11:19:10.857Z,11.47
2024-04-01T11:20:10.854Z,11.50
2024-04-01T11:21:10.824Z,11.54
2024-04-01T11:22:10.902Z,11.55
2024-04-01T11:23:10.820Z,11.59
2024-04-01T11:24:10.863Z,11.62
2024-04-01T11:25:10.827Z,11.57
2024-04-01T11:26:10.815Z,11.57
2024-04-01T11:27:10.773Z,11.63
2024-04-01T11:28:10.762Z,11.65
2024-04-01T11:29:10.789Z,11.66
2024-04-01T11:30:10.755Z,11.66
2024-04-01T11:31:10.842Z,11.69
2024-04-01T11:32:10.744Z,11.66
2024-04-01T11:33:10.730Z,11.66
2024-04-01T11:34:10.703Z,11.65
2024-04-01T11:35:10.700Z,11.63
2024-04-01T11:36:10.677Z,11.62
2024-04-01T11:37:10.673Z,11.54
2024-04-01T11:38:10.707Z,11.52
2024-04-01T11:39:10.789Z,11.47
2024-04-01T11:40:10.665Z,11.44
2024-04-01T11:41:10.684Z,11.44
2024-04-01T11:42:10.618Z,11.41
2024-04-01T11:43:10.609Z,11.44
2024-04-01T11:44:10.650Z,11.43
2024-04-01T11:45:10.573Z,11.43
2024-04-01T11:46:10.565Z,11.47
2024-04-01T11:47:10.617Z,11.48
2024-04-01T11:48:10.553Z,11.47
2024-04-01T11:49:10.525Z,11.47
2024-04-01T11:50:11.139Z,11.50
2024-04-01T11:51:10.507Z,11.55
2024-04-01T11:52:10.497Z,11.62
2024-04-01T11:53:10.493Z,11.66
2024-04-01T11:54:10.532Z,11.68
2024-04-01T11:55:10.552Z,11.70
2024-04-01T11:56:10.562Z,11.68
2024-04-01T11:57:10.452Z,11.70
2024-04-01T11:58:10.457Z,11.73
2024-04-01T11:59:10.430Z,11.75
2024-04-01T12:00:10.466Z,11.78
2024-04-01T12:01:10.476Z,11.81
2024-04-01T12:02:10.444Z,11.81
2024-04-01T12:03:10.417Z,11.83
2024-04-01T12:04:10.404Z,11.78
2024-04-01T12:05:10.437Z,11.73
2024-04-01T12:06:10.413Z,11.72
2024-04-01T12:07:10.373Z,11.70
2024-04-01T12:08:10.457Z,11.66
2024-04-01T12:09:10.346Z,11.65
2024-04-01T12:10:10.411Z,11.69
2024-04-01T12:11:10.363Z,11.69
2024-04-01T12:12:10.356Z,11.66
2024-04-01T12:13:10.327Z,11.66
2024-04-01T12:14:10.299Z,11.66
2024-04-01T12:15:10.331Z,11.66
2024-04-01T12:16:10.279Z,11.68
2024-04-01T12:17:10.276Z,11.69
2024-04-01T12:18:10.238Z,11.69
2024-04-01T12:19:10.246Z,11.69
2024-04-01T12:20:10.251Z,11.75
2024-04-01T12:21:10.240Z,11.77
2024-04-01T12:22:10.188Z,11.80
2024-04-01T12:23:10.214Z,11.83
2024-04-01T12:24:10.205Z,11.86
2024-04-01T12:25:10.165Z,11.84
2024-04-01T12:26:10.208Z,11.80
2024-04-01T12:27:10.198Z,11.81
2024-04-01T12:28:10.167Z,11.78
2024-04-01T12:29:10.123Z,11.78
2024-04-01T12:30:10.092Z,11.75
2024-04-01T12:31:10.126Z,11.68
2024-04-01T12:32:10.102Z,11.69
2024-04-01T12:33:18.448Z,11.70
2024-04-01T12:34:10.066Z,11.69
2024-04-01T12:35:10.083Z,11.69
2024-04-01T12:36:10.061Z,11.68
2024-04-01T12:37:10.217Z,11.65
2024-04-01T12:38:10.043Z,11.60
2024-04-01T12:39:10.091Z,11.60
2024-04-01T12:40:10.039Z,11.60
2024-04-01T12:41:10.119Z,11.62
2024-04-01T12:42:09.989Z,11.62
2024-04-01T12:43:10.017Z,11.60
2024-04-01T12:44:10.008Z,11.62
2024-04-01T12:45:09.977Z,11.63
2024-04-01T12:46:09.982Z,11.63
2024-04-01T12:47:09.932Z,11.69
2024-04-01T12:48:09.954Z,11.70
2024-04-01T12:49:10.049Z,11.73
2024-04-01T12:50:09.918Z,11.77
2024-04-01T12:51:09.914Z,11.78
2024-04-01T12:52:09.927Z,11.84
2024-04-01T12:53:10.799Z,11.87
2024-04-01T12:54:09.871Z,11.88
2024-04-01T12:55:09.894Z,11.90
2024-04-01T12:56:09.886Z,11.91
2024-04-01T12:57:10.017Z,11.90
2024-04-01T12:58:09.972Z,11.88
2024-04-01T12:59:09.834Z,11.90
2024-04-01T13:00:09.817Z,11.88
2024-04-01T13:01:09.949Z,11.87
2024-04-01T13:02:09.831Z,11.88
2024-04-01T13:03:09.800Z,11.91
2024-04-01T13:04:09.771Z,11.94
2024-04-01T13:05:09.756Z,12.00
2024-04-01T13:06:09.775Z,12.03
2024-04-01T13:07:09.755Z,12.03
2024-04-01T13:08:09.760Z,12.09
2024-04-01T13:09:09.736Z,12.13
2024-04-01T13:10:09.685Z,12.20